createdAt,value
2019-04-25T00:00:51.331Z,14.31
2019-04-25T00:03:22.206Z,14.43
2019-04-25T00:05:49.820Z,14.07
2019-04-25T00:08:17.469Z,14.23
2019-04-25T00:10:45.435Z,14.07
2019-04-25T00:13:13.546Z,14.05
2019-04-25T00:15:41.932Z,13.80
2019-04-25T00:18:11.923Z,13.69
2019-04-25T00:20:44.681Z,13.71
2019-04-25T00:23:15.138Z,13.86
2019-04-25T00:25:55.815Z,14.01
2019-04-25T00:28:23.317Z,14.02
2019-04-25T00:30:52.269Z,13.85
2019-04-25T00:33:21.573Z,13.63
2019-04-25T00:35:49.603Z,13.56
2019-04-25T00:38:17.795Z,13.47
2019-04-25T00:40:45.922Z,13.41
2019-04-25T00:43:13.414Z,12.98
2019-04-25T00:45:42.387Z,12.65
2019-04-25T00:48:10.242Z,13.08
2019-04-25T00:50:37.767Z,13.17
2019-04-25T00:53:05.310Z,13.25
2019-04-25T00:55:32.774Z,13.38
2019-04-25T00:58:12.299Z,13.29
2019-04-25T01:00:58.851Z,13.15
2019-04-25T01:03:28.360Z,13.13
2019-04-25T01:05:55.798Z,13.20
2019-04-25T01:08:23.190Z,13.12
2019-04-25T01:10:52.275Z,13.31
2019-04-25T01:13:20.301Z,13.23
2019-04-25T01:15:48.497Z,12.98
2019-04-25T01:18:15.982Z,12.80
2019-04-25T01:20:43.517Z,12.66
2019-04-25T01:23:11.177Z,12.64
2019-04-25T01:25:42.553Z,12.46
2019-04-25T01:28:08.035Z,12.44
2019-04-25T01:30:35.664Z,12.36
2019-04-25T01:33:03.568Z,12.33
2019-04-25T01:35:55.672Z,12.37
2019-04-25T01:38:39.467Z,12.43
2019-04-25T01:41:35.522Z,12.33
2019-04-25T01:44:11.450Z,12.35
2019-04-25T01:46:40.642Z,12.34
2019-04-25T01:49:08.131Z,12.22
2019-04-25T01:51:35.656Z,12.51
2019-04-25T01:54:04.109Z,12.63
2019-04-25T01:56:33.165Z,12.54
2019-04-25T01:59:01.600Z,12.53
2019-04-25T02:01:29.517Z,12.49
2019-04-25T02:03:57.251Z,12.37
2019-04-25T02:06:24.936Z,12.10
2019-04-25T02:08:54.625Z,12.06
2019-04-25T02:11:51.046Z,12.25
2019-04-25T02:14:18.846Z,12.16
2019-04-25T02:16:46.699Z,12.13
2019-04-25T02:19:14.576Z,12.13
2019-04-25T02:21:43.430Z,12.11
2019-04-25T02:24:11.072Z,12.05
2019-04-25T02:26:38.723Z,12.03
2019-04-25T02:29:06.307Z,11.94
2019-04-25T02:31:34.752Z,12.15
2019-04-25T02:34:06.176Z,12.19
2019-04-25T02:36:34.461Z,12.35
2019-04-25T02:39:04.582Z,12.15
2019-04-25T02:41:30.946Z,12.44
2019-04-25T02:44:02.986Z,12.45
2019-04-25T02:46:46.090Z,12.50
2019-04-25T02:49:44.996Z,12.19
2019-04-25T02:52:18.257Z,12.26
2019-04-25T02:54:45.989Z,12.15
2019-04-25T02:57:14.630Z,12.16
2019-04-25T02:59:44.844Z,12.11
2019-04-25T03:02:12.197Z,12.08
2019-04-25T03:04:39.645Z,12.09
2019-04-25T03:07:10.690Z,12.10
2019-04-25T03:09:36.628Z,12.17
2019-04-25T03:12:06.490Z,12.24
2019-04-25T03:14:35.245Z,12.26
2019-04-25T03:17:05.258Z,12.34
2019-04-25T03:19:55.274Z,12.06
2019-04-25T03:22:26.635Z,11.87
2019-04-25T03:24:54.986Z,12.04
2019-04-25T03:27:22.510Z,12.09
2019-04-25T03:29:50.013Z,12.01
2019-04-25T03:32:19.997Z,11.58
2019-04-25T03:34:46.868Z,11.62
2019-04-25T03:37:14.355Z,11.55
2019-04-25T03:39:43.538Z,11.70
2019-04-25T03:42:12.029Z,11.67
2019-04-25T03:44:39.734Z,11.80
2019-04-25T03:47:07.782Z,11.81
2019-04-25T03:49:36.077Z,11.87
2019-04-25T03:52:05.016Z,12.14
2019-04-25T03:54:33.476Z,11.96
2019-04-25T03:57:00.929Z,11.96
2019-04-25T03:59:28.407Z,11.89
2019-04-25T04:01:55.903Z,11.95
2019-04-25T04:04:23.837Z,12.03
2019-04-25T04:06:51.383Z,12.05
2019-04-25T04:09:18.975Z,12.05
2019-04-25T04:11:47.748Z,12.13
2019-04-25T04:14:15.823Z,12.22
2019-04-25T04:17:06.719Z,12.23
2019-04-25T04:19:45.165Z,12.22
2019-04-25T04:22:28.220Z,12.19
2019-04-25T04:24:57.430Z,12.27
2019-04-25T04:27:26.025Z,12.32
2019-04-25T04:29:54.263Z,12.45
2019-04-25T04:32:21.871Z,12.42
2019-04-25T04:34:51.271Z,12.44
2019-04-25T04:37:18.804Z,12.62
2019-04-25T04:39:47.847Z,12.86
2019-04-25T04:42:16.112Z,12.86
2019-04-25T04:44:43.910Z,13.24
2019-04-25T04:47:12.115Z,13.11
2019-04-25T04:49:40.705Z,13.35
2019-04-25T04:52:08.334Z,13.65
2019-04-25T04:54:36.938Z,13.81
2019-04-25T04:57:16.714Z,13.65
2019-04-25T04:59:34.068Z,13.56
2019-04-25T05:02:28.594Z,13.65
2019-04-25T05:05:14.812Z,13.68
2019-04-25T05:07:56.049Z,13.62
2019-04-25T05:10:24.551Z,13.90
2019-04-25T05:12:53.278Z,13.93
2019-04-25T05:15:20.850Z,13.70
2019-04-25T05:17:48.441Z,13.88
2019-04-25T05:20:17.506Z,13.74
2019-04-25T05:22:45.264Z,13.69
2019-04-25T05:25:15.315Z,13.48
2019-04-25T05:27:57.672Z,13.52
2019-04-25T05:30:18.040Z,13.77
2019-04-25T05:32:45.565Z,14.06
2019-04-25T05:35:14.930Z,14.37
2019-04-25T05:37:43.606Z,14.55
2019-04-25T05:40:11.719Z,14.56
2019-04-25T05:42:54.269Z,14.38
2019-04-25T05:45:25.730Z,14.48
2019-04-25T05:47:54.131Z,14.74
2019-04-25T05:50:22.528Z,14.79
2019-04-25T05:52:51.033Z,14.54
2019-04-25T05:55:19.989Z,14.52
2019-04-25T05:57:50.247Z,14.54
2019-04-25T06:00:18.948Z,15.02
2019-04-25T06:02:46.535Z,15.10
2019-04-25T06:05:14.943Z,15.45
2019-04-25T06:07:43.230Z,15.54
2019-04-25T06:10:45.844Z,16.16
2019-04-25T06:13:38.665Z,16.08
2019-04-25T06:16:11.418Z,15.89
2019-04-25T06:18:55.028Z,15.97
2019-04-25T06:21:23.565Z,16.50
2019-04-25T06:24:17.098Z,16.54
2019-04-25T06:27:08.240Z,16.52
2019-04-25T06:29:35.759Z,16.66
2019-04-25T06:32:06.554Z,16.77
2019-04-25T06:34:34.650Z,17.13
2019-04-25T06:37:04.252Z,17.28
2019-04-25T06:39:32.222Z,17.26
2019-04-25T06:41:59.806Z,17.68
2019-04-25T06:44:34.531Z,17.52
2019-04-25T06:47:10.611Z,17.44
2019-04-25T06:49:38.405Z,17.45
2019-04-25T06:52:05.872Z,17.20
2019-04-25T06:54:33.565Z,17.43
2019-04-25T06:57:04.432Z,17.96
2019-04-25T06:59:32.830Z,17.91
2019-04-25T07:02:01.582Z,18.17
2019-04-25T07:04:29.746Z,18.57
2019-04-25T07:07:09.379Z,18.36
2019-04-25T07:09:28.498Z,18.38
2019-04-25T07:11:56.146Z,18.42
2019-04-25T07:14:25.867Z,18.14
2019-04-25T07:16:53.324Z,17.98
2019-04-25T07:19:20.970Z,17.93
2019-04-25T07:21:48.453Z,18.36
2019-04-25T07:24:17.515Z,19.15
2019-04-25T07:26:53.945Z,19.15
2019-04-25T07:29:39.863Z,19.31
2019-04-25T07:32:15.064Z,19.38
2019-04-25T07:34:43.818Z,19.38
2019-04-25T07:37:13.151Z,19.70
2019-04-25T07:39:40.932Z,19.90
2019-04-25T07:42:08.498Z,20.05
2019-04-25T07:44:49.324Z,20.34
2019-04-25T07:47:05.664Z,20.27
2019-04-25T07:49:34.557Z,20.30
2019-04-25T07:52:03.600Z,20.33
2019-04-25T07:54:31.183Z,20.61
2019-04-25T07:56:58.683Z,21.09
2019-04-25T07:59:27.386Z,20.59
2019-04-25T08:01:55.339Z,20.64
2019-04-25T08:04:23.626Z,20.35
2019-04-25T08:06:51.363Z,19.97
2019-04-25T08:09:18.868Z,19.79
2019-04-25T08:11:46.500Z,19.56
2019-04-25T08:14:24.164Z,19.61
2019-04-25T08:16:55.132Z,19.67
2019-04-25T08:19:24.488Z,20.05
2019-04-25T08:21:53.696Z,20.03
2019-04-25T08:24:21.507Z,19.89
2019-04-25T08:26:49.055Z,19.73
2019-04-25T08:29:16.656Z,20.20
2019-04-25T08:31:45.329Z,20.17
2019-04-25T08:34:14.498Z,20.28
2019-04-25T08:36:42.237Z,20.69
2019-04-25T08:39:11.930Z,21.14
2019-04-25T08:41:39.438Z,21.40
2019-04-25T08:44:07.510Z,21.94
2019-04-25T08:46:36.772Z,22.05
2019-04-25T08:49:24.714Z,22.26
2019-04-25T08:51:55.513Z,22.48
2019-04-25T08:54:47.391Z,22.51
2019-04-25T08:57:25.709Z,22.70
2019-04-25T09:00:15.411Z,22.42
2019-04-25T09:02:56.596Z,22.83
2019-04-25T09:05:40.811Z,23.05
2019-04-25T09:08:08.604Z,22.80
2019-04-25T09:10:38.409Z,22.29
2019-04-25T09:13:06.743Z,22.15
2019-04-25T09:15:36.575Z,22.03
2019-04-25T09:18:04.104Z,22.08
2019-04-25T09:20:31.584Z,22.34
2019-04-25T09:22:59.070Z,22.38
2019-04-25T09:25:26.664Z,22.44
2019-04-25T09:27:54.512Z,22.97
2019-04-25T09:30:23.967Z,22.87
2019-04-25T09:32:53.356Z,23.09
2019-04-25T09:35:21.058Z,23.34
2019-04-25T09:37:48.653Z,23.58
2019-04-25T09:40:16.788Z,23.95
2019-04-25T09:42:46.237Z,23.94
2019-04-25T09:45:49.490Z,24.05
2019-04-25T09:48:28.445Z,24.49
2019-04-25T09:51:06.186Z,24.64
2019-04-25T09:53:40.072Z,24.60
2019-04-25T09:56:14.783Z,24.96
2019-04-25T09:58:50.516Z,24.97
2019-04-25T10:01:18.082Z,24.85
2019-04-25T10:03:46.196Z,24.86
2019-04-25T10:06:16.672Z,24.65
2019-04-25T10:08:47.473Z,24.69
2019-04-25T10:11:15.639Z,24.41
2019-04-25T10:13:51.280Z,24.28
2019-04-25T10:16:18.846Z,24.22
2019-04-25T10:18:46.416Z,24.32
2019-04-25T10:21:14.440Z,24.24
2019-04-25T10:23:45.011Z,24.40
2019-04-25T10:26:12.662Z,24.31
2019-04-25T10:28:43.668Z,24.23
2019-04-25T10:31:13.490Z,24.52
2019-04-25T10:33:43.392Z,24.64
2019-04-25T10:36:12.049Z,24.70
2019-04-25T10:38:40.345Z,24.88
2019-04-25T10:41:08.392Z,24.68
2019-04-25T10:43:36.021Z,24.57
2019-04-25T10:46:05.342Z,24.66
2019-04-25T10:48:34.369Z,25.01
2019-04-25T10:51:04.018Z,25.42
2019-04-25T10:53:31.610Z,25.42
2019-04-25T10:55:59.060Z,25.77
2019-04-25T10:58:26.486Z,25.67
2019-04-25T11:00:54.089Z,25.48
2019-04-25T11:03:41.207Z,25.72
2019-04-25T11:06:09.450Z,25.72
2019-04-25T11:08:37.028Z,25.97
2019-04-25T11:11:04.643Z,26.10
2019-04-25T11:13:33.757Z,26.39
2019-04-25T11:16:03.511Z,26.39
2019-04-25T11:18:31.241Z,26.00
2019-04-25T11:20:59.247Z,25.95
2019-04-25T11:23:26.884Z,25.95
2019-04-25T11:25:55.446Z,26.29
2019-04-25T11:28:23.439Z,26.38
2019-04-25T11:30:52.351Z,26.33
2019-04-25T11:33:20.337Z,26.26
2019-04-25T11:35:50.262Z,25.71
2019-04-25T11:38:27.802Z,25.38
2019-04-25T11:41:04.273Z,25.50
2019-04-25T11:43:31.953Z,25.82
2019-04-25T11:45:59.623Z,25.86
2019-04-25T11:48:27.215Z,25.94
2019-04-25T11:50:55.867Z,25.75
2019-04-25T11:53:25.040Z,25.69
2019-04-25T11:55:53.786Z,26.03
2019-04-25T11:58:23.547Z,26.10
2019-04-25T12:00:57.745Z,26.37
2019-04-25T12:03:24.637Z,26.37
2019-04-25T12:05:53.144Z,26.50
2019-04-25T12:08:20.770Z,26.63
2019-04-25T12:10:48.237Z,26.94
2019-04-25T12:13:15.803Z,26.85
2019-04-25T12:15:46.055Z,26.85
2019-04-25T12:18:13.806Z,27.03
2019-04-25T12:20:41.547Z,27.34
2019-04-25T12:23:10.622Z,27.28
2019-04-25T12:25:38.410Z,27.10
2019-04-25T12:28:06.099Z,27.24
2019-04-25T12:30:38.053Z,27.16
2019-04-25T12:33:03.385Z,27.08
2019-04-25T12:35:30.960Z,26.88
2019-04-25T12:37:58.722Z,26.73
2019-04-25T12:40:26.350Z,26.64
2019-04-25T12:42:54.385Z,26.66
2019-04-25T12:45:36.991Z,27.09
2019-04-25T12:48:05.463Z,26.75
2019-04-25T12:50:33.632Z,26.75
2019-04-25T12:53:01.227Z,26.75
2019-04-25T12:55:28.723Z,26.75
2019-04-25T12:57:56.524Z,26.66
2019-04-25T13:00:25.680Z,26.45
2019-04-25T13:02:54.069Z,26.52
2019-04-25T13:05:21.902Z,26.63
2019-04-25T13:07:49.335Z,26.62
2019-04-25T13:10:16.899Z,26.58
2019-04-25T13:12:44.453Z,26.58
2019-04-25T13:15:13.075Z,26.45
2019-04-25T13:17:40.673Z,26.77
2019-04-25T13:20:08.449Z,27.07
2019-04-25T13:22:36.056Z,27.33
2019-04-25T13:25:06.761Z,27.48
2019-04-25T13:27:57.580Z,27.56
2019-04-25T13:31:01.279Z,27.33
2019-04-25T13:33:33.943Z,27.36
2019-04-25T13:36:08.265Z,27.19
2019-04-25T13:38:35.956Z,26.92
2019-04-25T13:41:04.071Z,26.98
2019-04-25T13:43:31.821Z,27.03
2019-04-25T13:45:59.510Z,26.96
2019-04-25T13:48:28.020Z,27.00
2019-04-25T13:50:55.838Z,26.80
2019-04-25T13:53:25.666Z,26.65
2019-04-25T13:55:53.382Z,26.55
2019-04-25T13:58:21.115Z,26.54
2019-04-25T14:00:49.790Z,26.68
2019-04-25T14:03:17.527Z,26.68
2019-04-25T14:05:45.253Z,26.55
2019-04-25T14:08:13.461Z,26.46
2019-04-25T14:10:42.211Z,26.56
2019-04-25T14:13:10.134Z,26.36
2019-04-25T14:15:43.117Z,26.28
2019-04-25T14:18:30.221Z,26.47
2019-04-25T14:21:05.070Z,26.66
2019-04-25T14:23:34.511Z,26.87
2019-04-25T14:26:02.261Z,27.04
2019-04-25T14:28:31.716Z,27.29
2019-04-25T14:30:59.322Z,27.42
2019-04-25T14:33:27.603Z,27.38
2019-04-25T14:35:56.295Z,27.17
2019-04-25T14:38:25.253Z,26.97
2019-04-25T14:40:53.184Z,26.97
2019-04-25T14:43:21.359Z,26.72
2019-04-25T14:45:49.759Z,26.59
2019-04-25T14:48:18.370Z,26.50
2019-04-25T14:50:46.026Z,26.39
2019-04-25T14:53:13.632Z,26.39
2019-04-25T14:55:58.334Z,26.31
2019-04-25T14:58:28.213Z,26.14
2019-04-25T15:00:55.825Z,25.81
2019-04-25T15:03:24.038Z,25.80
2019-04-25T15:05:51.649Z,25.84
2019-04-25T15:08:19.249Z,25.77
2019-04-25T15:10:48.462Z,25.83
2019-04-25T15:13:16.159Z,25.79
2019-04-25T15:15:43.767Z,25.63
2019-04-25T15:18:11.267Z,25.33
2019-04-25T15:20:38.978Z,24.49
2019-04-25T15:23:06.506Z,24.11
2019-04-25T15:25:33.915Z,23.93
2019-04-25T15:28:01.644Z,23.86
2019-04-25T15:30:31.520Z,23.78
2019-04-25T15:32:59.059Z,23.43
2019-04-25T15:35:34.332Z,23.15
2019-04-25T15:38:07.532Z,23.02
2019-04-25T15:40:41.175Z,22.86
2019-04-25T15:43:40.324Z,22.91
2019-04-25T15:46:14.063Z,22.88
2019-04-25T15:48:41.708Z,22.71
2019-04-25T15:51:09.246Z,22.32
2019-04-25T15:53:36.813Z,21.93
2019-04-25T15:56:04.501Z,21.84
2019-04-25T15:58:31.963Z,21.75
2019-04-25T16:00:59.440Z,21.47
2019-04-25T16:03:27.171Z,21.44
2019-04-25T16:05:55.759Z,21.33
2019-04-25T16:08:23.248Z,21.30
2019-04-25T16:10:51.058Z,21.26
2019-04-25T16:13:18.534Z,21.26
2019-04-25T16:15:46.031Z,21.02
2019-04-25T16:18:13.777Z,21.06
2019-04-25T16:20:41.360Z,20.94
2019-04-25T16:23:09.324Z,20.93
2019-04-25T16:25:36.855Z,21.05
2019-04-25T16:28:04.479Z,20.86
2019-04-25T16:30:33.160Z,20.69
2019-04-25T16:33:00.723Z,20.70
2019-04-25T16:35:28.600Z,20.61
2019-04-25T16:37:57.229Z,20.57
2019-04-25T16:40:25.292Z,20.62
2019-04-25T16:42:52.952Z,20.59
2019-04-25T16:45:20.646Z,20.61
2019-04-25T16:47:48.154Z,20.31
2019-04-25T16:50:16.804Z,19.87
2019-04-25T16:52:44.378Z,19.86
2019-04-25T16:55:12.503Z,19.62
2019-04-25T16:57:39.925Z,19.53
2019-04-25T17:00:10.574Z,19.51
2019-04-25T17:02:40.868Z,19.53
2019-04-25T17:05:09.556Z,19.50
2019-04-25T17:07:38.468Z,19.43
2019-04-25T17:10:06.720Z,19.57
2019-04-25T17:12:34.396Z,19.52
2019-04-25T17:15:19.744Z,19.32
2019-04-25T17:18:05.471Z,19.36
2019-04-25T17:20:37.792Z,19.30
2019-04-25T17:23:05.797Z,19.27
2019-04-25T17:25:34.606Z,19.20
2019-04-25T17:28:02.252Z,19.17
2019-04-25T17:30:32.604Z,19.28
2019-04-25T17:33:20.132Z,19.16
2019-04-25T17:36:25.173Z,18.90
2019-04-25T17:38:58.911Z,18.73
2019-04-25T17:41:26.457Z,18.72
2019-04-25T17:43:54.067Z,18.62
2019-04-25T17:46:22.901Z,18.74
2019-04-25T17:48:50.391Z,18.65
2019-04-25T17:51:17.990Z,18.56
2019-04-25T17:53:45.523Z,18.40
2019-04-25T17:56:13.115Z,18.28
2019-04-25T17:58:41.251Z,18.26
2019-04-25T18:01:10.223Z,18.14
2019-04-25T18:03:37.809Z,18.17
2019-04-25T18:06:05.338Z,18.07
2019-04-25T18:08:33.402Z,18.05
2019-04-25T18:11:02.262Z,18.06
2019-04-25T18:13:29.761Z,18.11
2019-04-25T18:16:10.222Z,18.20
2019-04-25T18:18:46.782Z,18.11
2019-04-25T18:21:14.296Z,18.01
2019-04-25T18:24:07.011Z,17.99
2019-04-25T18:26:54.147Z,17.86
2019-04-25T18:29:22.020Z,17.96
2019-04-25T18:31:49.594Z,17.92
2019-04-25T18:34:32.295Z,17.90
2019-04-25T18:37:28.903Z,17.91
2019-04-25T18:40:05.069Z,17.86
2019-04-25T18:42:50.799Z,17.75
2019-04-25T18:45:23.526Z,17.79
2019-04-25T18:47:51.075Z,17.70
2019-04-25T18:50:20.394Z,17.78
2019-04-25T18:53:19.654Z,17.65
2019-04-25T18:56:02.086Z,17.55
2019-04-25T18:58:49.276Z,17.41
2019-04-25T19:01:38.021Z,17.37
2019-04-25T19:04:28.151Z,17.51
2019-04-25T19:06:58.302Z,17.67
2019-04-25T19:09:25.312Z,17.65
2019-04-25T19:11:52.786Z,17.45
2019-04-25T19:14:20.328Z,17.33
2019-04-25T19:16:50.326Z,17.30
2019-04-25T19:19:18.050Z,17.20
2019-04-25T19:21:45.632Z,17.27
2019-04-25T19:24:13.118Z,17.33
2019-04-25T19:26:42.217Z,17.06
2019-04-25T19:29:10.300Z,17.04
2019-04-25T19:31:37.863Z,16.90
2019-04-25T19:34:05.401Z,16.91
2019-04-25T19:36:32.943Z,16.91
2019-04-25T19:39:00.477Z,16.84
2019-04-25T19:41:34.674Z,16.82
2019-04-25T19:44:11.283Z,16.97
2019-04-25T19:46:44.836Z,17.03
2019-04-25T19:49:12.664Z,17.06
2019-04-25T19:51:41.662Z,17.03
2019-04-25T19:54:09.311Z,17.01
2019-04-25T19:56:37.162Z,17.22
2019-04-25T19:59:05.309Z,17.30
2019-04-25T20:01:32.680Z,17.29
2019-04-25T20:04:11.272Z,17.27
2019-04-25T20:06:56.929Z,17.19
2019-04-25T20:09:56.144Z,16.98
2019-04-25T20:12:24.970Z,16.75
2019-04-25T20:14:53.493Z,16.94
2019-04-25T20:17:21.249Z,16.99
2019-04-25T20:19:50.021Z,17.04
2019-04-25T20:22:17.605Z,16.84
2019-04-25T20:24:47.039Z,16.71
2019-04-25T20:27:14.471Z,16.68
2019-04-25T20:29:42.270Z,16.66
2019-04-25T20:32:09.808Z,16.84
2019-04-25T20:34:37.270Z,16.88
2019-04-25T20:37:04.701Z,16.86
2019-04-25T20:39:32.291Z,16.94
2019-04-25T20:41:59.742Z,16.81
2019-04-25T20:44:27.181Z,16.77
2019-04-25T20:46:54.786Z,16.81
2019-04-25T20:49:22.388Z,16.77
2019-04-25T20:51:50.624Z,16.79
2019-04-25T20:54:18.173Z,16.72
2019-04-25T20:56:46.903Z,16.52
2019-04-25T20:59:16.413Z,16.60
2019-04-25T21:01:43.895Z,16.61
2019-04-25T21:04:30.877Z,16.55
2019-04-25T21:06:58.347Z,16.59
2019-04-25T21:09:25.956Z,16.52
2019-04-25T21:11:53.415Z,16.54
2019-04-25T21:14:46.989Z,16.59
2019-04-25T21:17:18.225Z,16.63
2019-04-25T21:19:48.625Z,16.45
2019-04-25T21:22:15.346Z,16.44
2019-04-25T21:24:42.885Z,16.50
2019-04-25T21:27:10.580Z,16.48
2019-04-25T21:29:38.193Z,16.42
2019-04-25T21:32:05.965Z,16.12
2019-04-25T21:34:33.461Z,15.84
2019-04-25T21:37:01.858Z,15.95
2019-04-25T21:39:44.237Z,15.79
2019-04-25T21:42:34.850Z,15.60
2019-04-25T21:45:02.828Z,15.46
2019-04-25T21:47:30.196Z,15.36
2019-04-25T21:49:58.586Z,15.27
2019-04-25T21:52:26.535Z,15.37
2019-04-25T21:54:54.715Z,15.42
2019-04-25T21:57:23.380Z,15.48
2019-04-25T22:00:00.378Z,15.40
2019-04-25T22:02:20.638Z,15.44
2019-04-25T22:04:49.743Z,15.47
2019-04-25T22:07:17.483Z,15.51
2019-04-25T22:09:45.602Z,15.48
2019-04-25T22:12:13.494Z,15.40
2019-04-25T22:14:40.964Z,15.25
2019-04-25T22:17:09.156Z,15.33
2019-04-25T22:19:36.914Z,15.46
2019-04-25T22:22:04.725Z,15.49
2019-04-25T22:24:32.161Z,15.46
2019-04-25T22:27:03.274Z,15.49
2019-04-25T22:29:33.611Z,15.43
2019-04-25T22:32:08.393Z,15.44
2019-04-25T22:34:51.675Z,15.55
2019-04-25T22:37:10.910Z,15.68
2019-04-25T22:39:38.757Z,15.70
2019-04-25T22:42:06.268Z,15.58
2019-04-25T22:44:34.203Z,15.54
2019-04-25T22:47:02.371Z,15.46
2019-04-25T22:49:29.819Z,15.31
2019-04-25T22:51:57.280Z,15.34
2019-04-25T22:54:26.338Z,15.18
2019-04-25T22:56:53.884Z,15.31
2019-04-25T22:59:21.620Z,15.21
2019-04-25T23:02:11.692Z,15.18
2019-04-25T23:05:12.081Z,15.12
2019-04-25T23:07:37.366Z,15.04
2019-04-25T23:10:06.255Z,14.97
2019-04-25T23:12:34.203Z,14.90
2019-04-25T23:15:02.570Z,14.86
2019-04-25T23:17:30.967Z,14.81
2019-04-25T23:19:58.780Z,14.66
2019-04-25T23:22:26.255Z,14.76
2019-04-25T23:24:59.257Z,14.77
2019-04-25T23:27:55.165Z,14.74
2019-04-25T23:30:26.520Z,14.72
2019-04-25T23:32:53.900Z,14.77
2019-04-25T23:35:30.159Z,14.71
2019-04-25T23:37:50.775Z,14.73
2019-04-25T23:40:18.283Z,14.57
2019-04-25T23:42:45.655Z,14.70
2019-04-25T23:45:13.194Z,14.71
2019-04-25T23:47:40.634Z,14.54
2019-04-25T23:50:08.794Z,14.56
2019-04-25T23:52:36.210Z,14.48
2019-04-25T23:55:03.950Z,14.53
2019-04-25T23:57:31.431Z,14.62
2019-04-25T23:59:58.884Z,14.62
